createdAt,value
2022-12-18T00:01:21.812Z,12.55
2022-12-18T00:03:49.758Z,12.63
2022-12-18T00:06:20.479Z,12.53
2022-12-18T00:08:48.595Z,12.58
2022-12-18T00:11:20.847Z,12.53
2022-12-18T00:13:48.389Z,12.52
2022-12-18T00:16:21.032Z,12.50
2022-12-18T00:18:50.091Z,12.65
2022-12-18T00:21:17.268Z,12.76
2022-12-18T00:23:47.301Z,12.79
2022-12-18T00:26:20.361Z,12.84
2022-12-18T00:28:47.787Z,12.78
2022-12-18T00:31:20.721Z,12.86
2022-12-18T00:33:48.110Z,12.82
2022-12-18T00:36:19.978Z,12.87
2022-12-18T00:38:48.193Z,12.93
2022-12-18T00:41:39.121Z,12.93
2022-12-18T00:44:08.643Z,12.84
2022-12-18T00:46:35.528Z,12.93
2022-12-18T00:49:02.926Z,12.86
2022-12-18T00:51:29.858Z,12.85
2022-12-18T00:53:57.201Z,12.85
2022-12-18T00:56:24.614Z,12.78
2022-12-18T00:58:51.873Z,12.76
2022-12-18T01:01:19.504Z,12.88
2022-12-18T01:03:47.714Z,12.84
2022-12-18T01:06:17.511Z,12.78
2022-12-18T01:08:45.419Z,12.70
2022-12-18T01:11:19.577Z,12.63
2022-12-18T01:13:46.460Z,12.58
2022-12-18T01:16:14.935Z,12.64
2022-12-18T01:18:42.034Z,12.71
2022-12-18T01:21:11.601Z,12.72
2022-12-18T01:23:39.193Z,12.54
2022-12-18T01:26:12.010Z,12.43
2022-12-18T01:28:39.351Z,12.31
2022-12-18T01:31:29.960Z,12.18
2022-12-18T01:33:57.382Z,12.03
2022-12-18T01:36:24.175Z,11.95
2022-12-18T01:38:52.062Z,11.86
2022-12-18T01:41:22.602Z,11.91
2022-12-18T01:43:58.399Z,11.72
2022-12-18T01:46:26.280Z,11.74
2022-12-18T01:49:02.364Z,11.76
2022-12-18T01:51:31.845Z,11.68
2022-12-18T01:54:00.166Z,11.62
2022-12-18T01:56:27.101Z,11.60
2022-12-18T01:59:01.088Z,11.65
2022-12-18T02:01:30.376Z,11.59
2022-12-18T02:04:25.938Z,11.53
2022-12-18T02:07:10.829Z,11.50
2022-12-18T02:10:00.036Z,11.55
2022-12-18T02:12:53.082Z,11.49
2022-12-18T02:15:45.184Z,11.53
2022-12-18T02:18:19.517Z,11.48
2022-12-18T02:20:53.895Z,11.64
2022-12-18T02:23:40.379Z,11.71
2022-12-18T02:26:13.518Z,11.58
2022-12-18T02:29:04.898Z,11.50
2022-12-18T02:31:40.293Z,11.44
2022-12-18T02:34:09.610Z,11.55
2022-12-18T02:36:42.897Z,11.78
2022-12-18T02:39:13.674Z,11.79
2022-12-18T02:41:49.025Z,11.73
2022-12-18T02:44:16.220Z,11.58
2022-12-18T02:46:50.215Z,11.69
2022-12-18T02:49:35.383Z,11.70
2022-12-18T02:52:17.056Z,11.82
2022-12-18T02:55:10.039Z,11.62
2022-12-18T02:57:44.755Z,11.70
2022-12-18T03:00:17.244Z,11.82
2022-12-18T03:02:47.471Z,11.79
2022-12-18T03:05:36.837Z,11.67
2022-12-18T03:08:11.556Z,11.60
2022-12-18T03:10:50.531Z,11.61
2022-12-18T03:13:21.844Z,11.60
2022-12-18T03:15:52.350Z,11.56
2022-12-18T03:18:24.755Z,11.54
2022-12-18T03:20:56.866Z,11.46
2022-12-18T03:23:28.929Z,11.48
2022-12-18T03:26:00.810Z,11.52
2022-12-18T03:28:33.525Z,11.78
2022-12-18T03:31:06.748Z,11.86
2022-12-18T03:33:41.347Z,11.95
2022-12-18T03:36:08.803Z,11.95
2022-12-18T03:38:35.923Z,11.85
2022-12-18T03:41:26.257Z,11.82
2022-12-18T03:44:45.807Z,11.74
2022-12-18T03:47:12.528Z,11.69
2022-12-18T03:50:03.697Z,11.65
2022-12-18T03:52:39.563Z,11.53
2022-12-18T03:55:09.740Z,11.47
2022-12-18T03:57:39.075Z,11.50
2022-12-18T04:00:18.761Z,11.37
2022-12-18T04:03:01.886Z,11.41
2022-12-18T04:05:41.336Z,11.54
2022-12-18T04:08:08.668Z,11.62
2022-12-18T04:10:39.041Z,11.76
2022-12-18T04:13:05.997Z,11.79
2022-12-18T04:15:36.355Z,11.88
2022-12-18T04:18:04.909Z,11.83
2022-12-18T04:20:39.280Z,11.87
2022-12-18T04:23:06.220Z,11.82
2022-12-18T04:25:33.660Z,11.67
2022-12-18T04:28:07.891Z,11.57
2022-12-18T04:30:36.272Z,11.50
2022-12-18T04:33:03.137Z,11.63
2022-12-18T04:35:31.522Z,11.77
2022-12-18T04:37:58.359Z,11.88
2022-12-18T04:40:25.258Z,11.87
2022-12-18T04:42:52.791Z,11.68
2022-12-18T04:45:19.715Z,11.61
2022-12-18T04:47:46.564Z,11.55
2022-12-18T04:50:13.436Z,11.41
2022-12-18T04:52:40.288Z,11.30
2022-12-18T04:55:07.397Z,11.28
2022-12-18T04:57:34.290Z,11.27
2022-12-18T05:00:01.123Z,11.44
2022-12-18T05:02:28.200Z,11.42
2022-12-18T05:04:55.208Z,11.49
2022-12-18T05:07:22.051Z,11.58
2022-12-18T05:09:48.866Z,11.60
2022-12-18T05:12:15.723Z,11.55
2022-12-18T05:14:42.742Z,11.63
2022-12-18T05:17:09.607Z,11.61
2022-12-18T05:19:36.527Z,11.61
2022-12-18T05:22:03.378Z,11.61
2022-12-18T05:24:30.408Z,11.55
2022-12-18T05:26:57.266Z,11.45
2022-12-18T05:29:24.305Z,11.51
2022-12-18T05:31:51.219Z,11.46
2022-12-18T05:34:18.218Z,11.46
2022-12-18T05:36:45.233Z,11.56
2022-12-18T05:39:12.089Z,11.53
2022-12-18T05:41:39.034Z,11.43
2022-12-18T05:44:06.191Z,11.39
2022-12-18T05:46:33.378Z,11.46
2022-12-18T05:49:02.264Z,11.45
2022-12-18T05:51:29.186Z,11.56
2022-12-18T05:53:56.166Z,11.40
2022-12-18T05:56:23.953Z,11.30
2022-12-18T05:58:55.234Z,11.27
2022-12-18T06:01:26.429Z,11.20
2022-12-18T06:03:53.893Z,11.13
2022-12-18T06:06:24.084Z,11.12
2022-12-18T06:08:52.013Z,11.15
2022-12-18T06:11:22.603Z,11.11
2022-12-18T06:13:58.886Z,11.12
2022-12-18T06:16:27.316Z,11.13
2022-12-18T06:18:54.869Z,10.98
2022-12-18T06:21:21.740Z,10.92
2022-12-18T06:23:48.679Z,10.93
2022-12-18T06:26:16.055Z,11.02
2022-12-18T06:28:42.936Z,11.01
2022-12-18T06:31:10.867Z,11.03
2022-12-18T06:33:38.967Z,11.19
2022-12-18T06:36:10.372Z,11.07
2022-12-18T06:38:40.201Z,11.08
2022-12-18T06:41:12.593Z,11.02
2022-12-18T06:43:40.048Z,11.05
2022-12-18T06:46:07.471Z,11.08
2022-12-18T06:48:34.765Z,10.97
2022-12-18T06:51:01.604Z,10.93
2022-12-18T06:53:28.987Z,10.92
2022-12-18T06:56:10.148Z,10.82
2022-12-18T06:58:39.407Z,10.87
2022-12-18T07:01:09.088Z,10.70
2022-12-18T07:03:36.223Z,10.67
2022-12-18T07:06:03.428Z,10.71
2022-12-18T07:08:31.947Z,10.88
2022-12-18T07:10:59.375Z,11.02
2022-12-18T07:13:26.452Z,10.80
2022-12-18T07:15:53.405Z,10.81
2022-12-18T07:18:20.345Z,10.92
2022-12-18T07:20:47.272Z,10.94
2022-12-18T07:23:14.948Z,10.92
2022-12-18T07:25:41.880Z,10.96
2022-12-18T07:28:11.690Z,10.83
2022-12-18T07:30:42.541Z,10.83
2022-12-18T07:33:09.478Z,10.84
2022-12-18T07:35:37.412Z,10.80
2022-12-18T07:38:04.582Z,10.86
2022-12-18T07:40:31.492Z,10.95
2022-12-18T07:42:58.332Z,11.00
2022-12-18T07:45:25.288Z,10.82
2022-12-18T07:47:52.312Z,10.84
2022-12-18T07:50:19.249Z,10.92
2022-12-18T07:52:46.125Z,10.83
2022-12-18T07:55:16.511Z,10.83
2022-12-18T07:57:52.650Z,10.57
2022-12-18T08:00:22.527Z,10.76
2022-12-18T08:02:49.503Z,10.68
2022-12-18T08:05:16.632Z,10.66
2022-12-18T08:07:43.579Z,10.56
2022-12-18T08:10:10.627Z,10.52
2022-12-18T08:12:37.460Z,10.47
2022-12-18T08:15:04.728Z,10.36
2022-12-18T08:17:31.980Z,10.37
2022-12-18T08:19:58.822Z,10.29
2022-12-18T08:22:25.835Z,10.32
2022-12-18T08:24:52.652Z,10.43
2022-12-18T08:27:34.922Z,10.42
2022-12-18T08:30:02.566Z,10.38
2022-12-18T08:32:29.528Z,10.41
2022-12-18T08:34:56.509Z,10.38
2022-12-18T08:37:23.387Z,10.26
2022-12-18T08:39:50.364Z,10.17
2022-12-18T08:42:36.057Z,10.35
2022-12-18T08:45:03.842Z,10.24
2022-12-18T08:47:30.761Z,10.17
2022-12-18T08:49:57.594Z,10.11
2022-12-18T08:52:24.486Z,10.29
2022-12-18T08:54:51.494Z,10.24
2022-12-18T08:57:18.424Z,10.41
2022-12-18T08:59:45.244Z,10.54
2022-12-18T09:02:12.667Z,10.42
2022-12-18T09:04:41.052Z,10.41
2022-12-18T09:07:08.277Z,10.32
2022-12-18T09:09:35.205Z,10.41
2022-12-18T09:12:02.084Z,10.27
2022-12-18T09:14:28.882Z,10.34
2022-12-18T09:16:56.090Z,10.24
2022-12-18T09:19:22.947Z,10.22
2022-12-18T09:21:49.796Z,10.14
2022-12-18T09:24:17.186Z,10.29
2022-12-18T09:26:46.979Z,10.40
2022-12-18T09:29:15.658Z,10.49
2022-12-18T09:31:43.822Z,10.55
2022-12-18T09:34:10.778Z,10.65
2022-12-18T09:36:37.715Z,10.69
2022-12-18T09:39:08.575Z,10.61
2022-12-18T09:41:42.160Z,10.54
2022-12-18T09:44:25.109Z,10.50
2022-12-18T09:47:00.936Z,10.49
2022-12-18T09:49:31.715Z,10.45
2022-12-18T09:52:17.033Z,10.41
2022-12-18T09:54:49.227Z,10.45
2022-12-18T09:57:22.832Z,10.47
2022-12-18T10:00:00.316Z,10.36
2022-12-18T10:02:31.156Z,10.08
2022-12-18T10:05:18.113Z,10.07
2022-12-18T10:08:03.580Z,9.97
2022-12-18T10:10:41.284Z,9.88
2022-12-18T10:13:32.714Z,9.91
2022-12-18T10:16:20.730Z,9.72
2022-12-18T10:19:20.303Z,9.63
2022-12-18T10:22:04.408Z,9.58
2022-12-18T10:24:37.499Z,9.75
2022-12-18T10:27:26.717Z,9.54
2022-12-18T10:29:55.132Z,9.51
2022-12-18T10:32:27.775Z,9.67
2022-12-18T10:35:00.420Z,9.65
2022-12-18T10:37:30.988Z,9.77
2022-12-18T10:40:22.333Z,9.83
2022-12-18T10:43:13.299Z,9.98
2022-12-18T10:45:40.943Z,10.08
2022-12-18T10:48:23.624Z,10.18
2022-12-18T10:51:10.745Z,10.12
2022-12-18T10:53:43.002Z,10.17
2022-12-18T10:56:10.526Z,10.18
2022-12-18T10:58:39.698Z,10.15
2022-12-18T11:01:14.314Z,10.25
2022-12-18T11:04:03.314Z,10.18
2022-12-18T11:06:30.720Z,10.25
2022-12-18T11:09:12.260Z,10.10
2022-12-18T11:11:41.415Z,10.21
2022-12-18T11:14:23.059Z,10.29
2022-12-18T11:19:40.970Z,10.29
2022-12-18T11:22:29.257Z,10.22
2022-12-18T11:25:31.261Z,10.29
2022-12-18T11:28:03.869Z,10.17
2022-12-18T11:30:33.720Z,10.11
2022-12-18T11:33:10.627Z,10.10
2022-12-18T11:35:46.682Z,10.27
2022-12-18T11:38:24.399Z,10.33
2022-12-18T11:41:46.048Z,10.27
2022-12-18T11:44:20.578Z,10.34
2022-12-18T11:46:54.712Z,10.29
2022-12-18T11:49:28.014Z,10.38
2022-12-18T11:52:04.069Z,10.28
2022-12-18T11:54:31.061Z,10.06
2022-12-18T11:57:18.152Z,9.80
2022-12-18T12:00:02.496Z,9.84
2022-12-18T12:03:06.774Z,9.90
2022-12-18T12:06:02.700Z,10.03
2022-12-18T12:08:54.847Z,9.84
2022-12-18T12:11:44.819Z,9.71
2022-12-18T12:14:26.399Z,9.67
2022-12-18T12:17:08.134Z,9.70
2022-12-18T12:19:34.987Z,9.67
2022-12-18T12:22:19.387Z,9.57
2022-12-18T12:24:59.642Z,9.54
2022-12-18T12:27:41.052Z,9.49
2022-12-18T12:30:10.357Z,9.44
2022-12-18T12:33:07.090Z,9.38
2022-12-18T12:35:52.404Z,9.30
2022-12-18T12:38:32.177Z,9.29
2022-12-18T12:41:29.345Z,9.42
2022-12-18T12:44:01.092Z,9.42
2022-12-18T12:46:31.546Z,9.40
2022-12-18T12:49:03.243Z,9.42
2022-12-18T12:51:35.072Z,9.40
2022-12-18T12:54:04.851Z,9.47
2022-12-18T12:56:53.732Z,9.53
2022-12-18T12:59:24.854Z,9.61
2022-12-18T13:02:06.418Z,9.59
2022-12-18T13:04:39.557Z,9.58
2022-12-18T13:07:11.972Z,9.63
2022-12-18T13:13:44.928Z,9.47
2022-12-18T13:13:47.039Z,9.37
2022-12-18T13:16:06.903Z,9.16
2022-12-18T13:18:35.281Z,9.01
2022-12-18T13:21:05.261Z,8.94
2022-12-18T13:23:34.291Z,8.78
2022-12-18T13:26:28.182Z,8.70
2022-12-18T13:28:57.900Z,8.59
2022-12-18T13:31:31.050Z,8.54
2022-12-18T13:37:43.483Z,8.49
2022-12-18T13:40:42.330Z,8.56
2022-12-18T13:43:21.665Z,8.66
2022-12-18T13:46:02.291Z,8.61
2022-12-18T13:48:32.872Z,8.70
2022-12-18T13:51:08.954Z,8.78
2022-12-18T13:53:50.105Z,8.90
2022-12-18T13:56:18.281Z,8.96
2022-12-18T13:58:45.520Z,8.90
2022-12-18T14:01:25.358Z,8.86
2022-12-18T14:04:06.219Z,8.61
2022-12-18T14:06:33.100Z,8.57
2022-12-18T14:09:00.703Z,8.28
2022-12-18T14:11:27.874Z,8.24
2022-12-18T14:13:56.291Z,8.06
2022-12-18T14:16:23.487Z,8.10
2022-12-18T14:18:58.148Z,8.11
2022-12-18T14:21:36.216Z,8.15
2022-12-18T14:24:19.685Z,8.22
2022-12-18T14:26:48.391Z,8.20
2022-12-18T14:29:27.518Z,7.95
2022-12-18T14:32:17.550Z,8.11
2022-12-18T14:34:50.459Z,8.00
2022-12-18T14:37:27.272Z,7.76
2022-12-18T14:40:11.240Z,7.65
2022-12-18T14:42:38.468Z,7.54
2022-12-18T14:45:39.134Z,7.43
2022-12-18T14:48:36.129Z,7.57
2022-12-18T14:51:06.600Z,7.43
2022-12-18T14:53:36.694Z,7.51
2022-12-18T14:56:13.412Z,7.37
2022-12-18T14:58:40.627Z,7.18
2022-12-18T15:01:08.066Z,7.06
2022-12-18T15:03:44.878Z,7.02
2022-12-18T15:06:31.284Z,7.08
2022-12-18T15:08:59.883Z,7.09
2022-12-18T15:11:28.140Z,7.20
2022-12-18T15:13:54.964Z,7.15
2022-12-18T15:16:22.109Z,7.15
2022-12-18T15:18:49.490Z,7.29
2022-12-18T15:21:21.719Z,7.28
2022-12-18T15:23:52.041Z,7.35
2022-12-18T15:26:21.666Z,7.34
2022-12-18T15:28:51.260Z,7.28
2022-12-18T15:31:18.332Z,7.44
2022-12-18T15:34:20.284Z,7.45
2022-12-18T15:36:47.436Z,7.45
2022-12-18T15:39:14.533Z,7.34
2022-12-18T15:41:41.755Z,7.28
2022-12-18T15:44:24.392Z,7.38
2022-12-18T15:46:51.427Z,7.40
2022-12-18T15:49:18.236Z,7.44
2022-12-18T15:51:45.780Z,7.41
2022-12-18T15:54:17.198Z,7.32
2022-12-18T15:57:02.510Z,7.47
2022-12-18T15:59:29.612Z,7.47
2022-12-18T16:01:57.771Z,7.42
2022-12-18T16:04:25.761Z,7.50
2022-12-18T16:07:14.452Z,7.52
2022-12-18T16:09:43.051Z,7.51
2022-12-18T16:12:20.371Z,7.41
2022-12-18T16:14:47.709Z,7.39
2022-12-18T16:17:15.622Z,7.52
2022-12-18T16:19:43.639Z,7.60
2022-12-18T16:22:24.548Z,7.75
2022-12-18T16:24:53.115Z,7.70
2022-12-18T16:27:20.999Z,7.62
2022-12-18T16:29:48.036Z,7.45
2022-12-18T16:32:17.279Z,7.45
2022-12-18T16:34:44.773Z,7.46
2022-12-18T16:37:13.882Z,7.45
2022-12-18T16:39:41.453Z,7.48
2022-12-18T16:42:20.480Z,7.37
2022-12-18T16:44:49.119Z,7.41
2022-12-18T16:47:16.642Z,7.43
2022-12-18T16:49:46.105Z,7.30
2022-12-18T16:52:13.979Z,7.25
2022-12-18T16:54:40.820Z,7.23
2022-12-18T16:57:07.687Z,7.16
2022-12-18T16:59:34.598Z,7.17
2022-12-18T17:02:02.132Z,7.31
2022-12-18T17:04:29.094Z,7.20
2022-12-18T17:06:55.909Z,7.27
2022-12-18T17:09:26.126Z,7.25
2022-12-18T17:11:54.055Z,7.38
2022-12-18T17:14:23.863Z,7.23
2022-12-18T17:17:19.115Z,7.37
2022-12-18T17:19:38.979Z,7.19
2022-12-18T17:22:05.951Z,7.20
2022-12-18T17:24:35.105Z,7.20
2022-12-18T17:27:03.640Z,7.27
2022-12-18T17:29:30.992Z,7.16
2022-12-18T17:31:58.055Z,7.34
2022-12-18T17:34:27.460Z,7.25
2022-12-18T17:36:54.591Z,7.27
2022-12-18T17:39:23.032Z,7.03
2022-12-18T17:41:50.503Z,7.03
2022-12-18T17:44:18.475Z,6.87
2022-12-18T17:46:46.345Z,6.89
2022-12-18T17:49:15.908Z,6.76
2022-12-18T17:51:43.174Z,6.58
2022-12-18T17:54:11.110Z,6.31
2022-12-18T17:56:39.065Z,6.51
2022-12-18T17:59:07.307Z,6.27
2022-12-18T18:01:38.556Z,6.24
2022-12-18T18:04:09.510Z,6.25
2022-12-18T18:06:38.697Z,6.29
2022-12-18T18:09:12.256Z,6.39
2022-12-18T18:12:03.007Z,6.35
2022-12-18T18:14:30.378Z,6.41
2022-12-18T18:17:00.783Z,6.43
2022-12-18T18:19:33.165Z,6.31
2022-12-18T18:22:01.625Z,6.25
2022-12-18T18:24:30.300Z,6.49
2022-12-18T18:26:59.674Z,6.22
2022-12-18T18:29:28.625Z,6.36
2022-12-18T18:31:56.432Z,6.39
2022-12-18T18:34:26.766Z,6.32
2022-12-18T18:36:54.023Z,6.41
2022-12-18T18:39:21.233Z,6.36
2022-12-18T18:41:48.804Z,6.40
2022-12-18T18:44:19.082Z,6.36
2022-12-18T18:46:46.868Z,6.18
2022-12-18T18:49:15.013Z,6.31
2022-12-18T18:51:42.790Z,6.26
2022-12-18T18:54:10.328Z,6.21
2022-12-18T18:57:03.932Z,6.29
2022-12-18T18:59:31.349Z,6.27
2022-12-18T19:02:00.775Z,6.19
2022-12-18T19:04:35.258Z,6.05
2022-12-18T19:07:04.426Z,6.12
2022-12-18T19:09:31.510Z,6.10
2022-12-18T19:12:16.968Z,6.15
2022-12-18T19:14:44.289Z,6.11
2022-12-18T19:17:11.131Z,6.05
2022-12-18T19:19:38.424Z,6.11
2022-12-18T19:22:05.373Z,6.02
2022-12-18T19:24:32.253Z,5.96
2022-12-18T19:26:59.069Z,6.05
2022-12-18T19:29:25.991Z,6.23
2022-12-18T19:31:52.999Z,6.19
2022-12-18T19:34:20.066Z,6.22
2022-12-18T19:36:46.977Z,6.39
2022-12-18T19:39:17.694Z,6.12
2022-12-18T19:41:46.401Z,6.24
2022-12-18T19:44:15.784Z,6.27
2022-12-18T19:46:43.261Z,6.28
2022-12-18T19:49:11.614Z,6.33
2022-12-18T19:51:46.953Z,6.61
2022-12-18T19:54:16.957Z,6.66
2022-12-18T19:56:45.158Z,6.49
2022-12-18T19:59:12.131Z,6.47
2022-12-18T20:01:39.125Z,6.39
2022-12-18T20:04:06.341Z,6.45
2022-12-18T20:07:01.723Z,6.47
2022-12-18T20:09:28.695Z,6.49
2022-12-18T20:11:55.626Z,6.38
2022-12-18T20:14:23.874Z,6.48
2022-12-18T20:16:52.603Z,6.47
2022-12-18T20:19:20.927Z,6.33
2022-12-18T20:21:48.392Z,6.23
2022-12-18T20:24:15.396Z,6.18
2022-12-18T20:26:42.330Z,6.27
2022-12-18T20:29:09.238Z,6.40
2022-12-18T20:31:36.343Z,6.08
2022-12-18T20:34:04.885Z,6.02
2022-12-18T20:36:34.317Z,6.07
2022-12-18T20:39:05.379Z,6.02
2022-12-18T20:41:38.448Z,5.99
2022-12-18T20:44:21.904Z,6.04
2022-12-18T20:46:56.503Z,5.77
2022-12-18T20:49:24.925Z,5.92
2022-12-18T20:51:54.084Z,5.99
2022-12-18T20:54:22.817Z,6.11
2022-12-18T20:56:50.285Z,6.01
2022-12-18T20:59:18.641Z,6.02
2022-12-18T21:01:48.285Z,6.12
2022-12-18T21:04:18.007Z,6.24
2022-12-18T21:06:49.405Z,6.29
2022-12-18T21:09:18.605Z,6.32
2022-12-18T21:12:03.867Z,6.35
2022-12-18T21:14:33.943Z,6.32
2022-12-18T21:17:02.128Z,6.36
2022-12-18T21:19:29.910Z,6.24
2022-12-18T21:21:57.801Z,6.31
2022-12-18T21:24:25.626Z,6.39
2022-12-18T21:26:54.137Z,6.17
2022-12-18T21:29:25.841Z,5.95
2022-12-18T21:31:54.733Z,6.09
2022-12-18T21:34:26.298Z,5.99
2022-12-18T21:36:55.148Z,6.19
2022-12-18T21:39:22.914Z,5.96
2022-12-18T21:42:09.286Z,5.99
2022-12-18T21:44:39.592Z,6.00
2022-12-18T21:47:22.163Z,6.11
2022-12-18T21:49:51.450Z,6.14
2022-12-18T21:52:18.784Z,6.08
2022-12-18T21:54:45.733Z,6.07
2022-12-18T21:57:15.814Z,6.13
2022-12-18T21:59:45.981Z,6.09
2022-12-18T22:02:12.989Z,6.24
2022-12-18T22:04:40.237Z,6.23
2022-12-18T22:07:07.557Z,6.21
2022-12-18T22:09:35.049Z,6.16
2022-12-18T22:12:02.110Z,6.15
2022-12-18T22:14:29.386Z,6.19
2022-12-18T22:16:57.491Z,6.07
2022-12-18T22:19:26.025Z,5.90
2022-12-18T22:21:53.816Z,5.99
2022-12-18T22:24:23.942Z,5.83
2022-12-18T22:26:53.108Z,5.97
2022-12-18T22:29:42.914Z,6.00
2022-12-18T22:32:13.131Z,6.11
2022-12-18T22:34:42.205Z,6.00
2022-12-18T22:37:11.594Z,6.21
2022-12-18T22:39:38.618Z,6.12
2022-12-18T22:42:05.876Z,6.03
2022-12-18T22:44:32.775Z,6.06
2022-12-18T22:47:07.006Z,6.21
2022-12-18T22:49:34.885Z,6.13
2022-12-18T22:52:03.020Z,6.10
2022-12-18T22:54:29.893Z,6.16
2022-12-18T22:56:57.152Z,6.06
2022-12-18T22:59:24.391Z,6.03
2022-12-18T23:01:58.393Z,5.98
2022-12-18T23:04:28.802Z,5.89
2022-12-18T23:07:07.537Z,6.00
2022-12-18T23:09:35.042Z,5.86
2022-12-18T23:12:02.033Z,5.80
2022-12-18T23:14:29.665Z,5.87
2022-12-18T23:16:56.804Z,5.84
2022-12-18T23:19:24.178Z,6.07
2022-12-18T23:21:51.833Z,6.15
2022-12-18T23:24:21.350Z,6.18
2022-12-18T23:26:48.159Z,6.16
2022-12-18T23:29:14.972Z,5.95
2022-12-18T23:31:41.863Z,5.87
2022-12-18T23:34:11.891Z,5.63
2022-12-18T23:36:46.264Z,5.62
2022-12-18T23:39:17.460Z,5.76
2022-12-18T23:41:59.720Z,5.55
2022-12-18T23:44:26.663Z,5.56
2022-12-18T23:46:54.690Z,5.63
2022-12-18T23:49:21.665Z,5.62
2022-12-18T23:51:48.700Z,5.51
2022-12-18T23:54:15.663Z,5.51
2022-12-18T23:56:42.502Z,5.53
2022-12-18T23:59:09.619Z,5.48
